Time;durP1;ratioP1;P1;durP2;ratioP2;P2;SDS_P1;SDS_P2;PMS_P1;PMS_P2;Temp;Humidity;BMP_temperature;BMP_pressure;BME280_temperature;BME280_humidity;BME280_pressure;Samples;Min_cycle;Max_cycle;Signal;HPM_P1;HPM_P2
2023/08/19 00:01:04;;;;;;;4.40;2.90;;;23.70;37.60;;;;;;10282641;28;20326;-70
2023/08/19 00:06:09;;;;;;;3.07;2.87;;;23.60;38.70;;;;;;10271870;28;20223;-70
2023/08/19 00:11:13;;;;;;;2.70;2.50;;;23.50;38.50;;;;;;10281623;28;20326;-70
2023/08/19 00:16:17;;;;;;;3.00;2.80;;;23.40;38.10;;;;;;10278022;28;20242;-70
2023/08/19 00:21:21;;;;;;;2.80;2.60;;;23.50;39.20;;;;;;10276720;28;20757;-70
2023/08/19 00:26:25;;;;;;;3.27;2.57;;;23.50;38.40;;;;;;10277988;28;20240;-70
2023/08/19 00:31:29;;;;;;;2.77;2.57;;;23.40;38.30;;;;;;10283119;28;20239;-70
2023/08/19 00:36:32;;;;;;;3.07;2.80;;;23.40;39.00;;;;;;10278641;28;20235;-70
2023/08/19 00:41:35;;;;;;;2.97;2.77;;;23.40;38.70;;;;;;10271181;28;20235;-70
2023/08/19 00:46:40;;;;;;;2.33;2.13;;;23.30;38.80;;;;;;10269844;28;20242;-70
2023/08/19 00:51:44;;;;;;;2.90;2.60;;;23.20;39.30;;;;;;10270938;28;20240;-70
2023/08/19 00:56:47;;;;;;;2.80;2.60;;;23.20;38.90;;;;;;10271359;28;20231;-70
2023/08/19 01:01:51;;;;;;;2.70;2.50;;;23.30;38.90;;;;;;10272363;28;20238;-70
2023/08/19 01:07:04;;;;;;;3.00;2.70;;;23.30;39.40;;;;;;10268784;28;20240;-70
2023/08/19 01:12:22;;;;;;;2.93;2.63;;;23.30;39.40;;;;;;10264201;28;20255;-70
2023/08/19 01:17:30;;;;;;;3.00;2.80;;;23.40;39.50;;;;;;10272809;28;20233;-70
2023/08/19 01:22:42;;;;;;;3.17;2.47;;;23.40;39.50;;;;;;10274875;28;20235;-70
2023/08/19 01:27:46;;;;;;;3.10;2.90;;;23.40;39.50;;;;;;10272796;28;20233;-70
2023/08/19 01:32:50;;;;;;;2.80;2.60;;;23.40;39.50;;;;;;10270608;28;20236;-70
2023/08/19 01:37:59;;;;;;;2.80;2.60;;;23.40;38.60;;;;;;10266018;28;20635;-71
2023/08/19 01:43:05;;;;;;;2.23;2.13;;;23.40;39.50;;;;;;10279120;28;20244;-70
2023/08/19 01:48:08;;;;;;;4.67;3.23;;;23.40;39.30;;;;;;10273685;28;20228;-70
2023/08/19 01:53:12;;;;;;;4.60;2.90;;;23.40;38.70;;;;;;10272837;28;20240;-70
2023/08/19 01:58:16;;;;;;;3.10;2.90;;;23.30;38.70;;;;;;10266280;28;20236;-71
2023/08/19 02:03:19;;;;;;;2.97;2.77;;;23.30;39.00;;;;;;10274020;28;20240;-70
2023/08/19 02:08:23;;;;;;;3.50;3.20;;;23.30;38.70;;;;;;10269011;28;20720;-71
2023/08/19 02:13:27;;;;;;;3.60;3.30;;;23.30;38.90;;;;;;10271129;28;20261;-71
2023/08/19 02:18:30;;;;;;;4.70;3.00;;;23.20;39.30;;;;;;10273837;28;20322;-71
2023/08/19 02:23:34;;;;;;;3.43;3.00;;;23.20;38.60;;;;;;10268623;28;20242;-71
2023/08/19 02:28:38;;;;;;;3.27;2.97;;;23.10;38.40;;;;;;10272242;28;20298;-71
2023/08/19 02:33:41;;;;;;;4.83;3.57;;;23.00;39.00;;;;;;10263383;28;20243;-71
2023/08/19 02:38:45;;;;;;;3.57;3.27;;;22.90;39.10;;;;;;10268046;28;20307;-71
2023/08/19 02:43:50;;;;;;;3.87;3.17;;;22.90;39.00;;;;;;10270753;28;20243;-71
2023/08/19 02:48:53;;;;;;;3.17;2.97;;;22.80;39.00;;;;;;10274485;28;20239;-71
2023/08/19 02:53:56;;;;;;;3.57;3.10;;;22.70;38.90;;;;;;10267323;28;20310;-71
2023/08/19 02:59:00;;;;;;;3.50;3.30;;;22.60;38.80;;;;;;10266910;28;20239;-71
2023/08/19 03:04:04;;;;;;;2.97;2.77;;;22.60;38.80;;;;;;10264920;28;20235;-71
2023/08/19 03:09:07;;;;;;;2.70;2.37;;;22.50;38.70;;;;;;10272345;28;20242;-71
2023/08/19 03:14:12;;;;;;;2.90;2.70;;;22.40;38.60;;;;;;10269567;28;20330;-71
2023/08/19 03:19:15;;;;;;;4.23;3.13;;;22.40;39.10;;;;;;10274123;28;20313;-71
2023/08/19 03:24:18;;;;;;;3.47;3.17;;;22.40;38.70;;;;;;10268440;28;20235;-71
2023/08/19 03:29:24;;;;;;;2.90;2.70;;;22.30;38.80;;;;;;10267574;28;20250;-71
2023/08/19 03:34:28;;;;;;;3.50;3.20;;;22.30;39.50;;;;;;10271355;28;20236;-71
2023/08/19 03:39:31;;;;;;;4.20;3.90;;;22.20;39.10;;;;;;10270772;28;20590;-71
2023/08/19 03:44:35;;;;;;;3.70;3.40;;;22.10;39.10;;;;;;10266921;28;20314;-71
2023/08/19 03:49:39;;;;;;;3.50;3.20;;;22.00;39.60;;;;;;10269777;28;20257;-71
2023/08/19 03:54:42;;;;;;;4.27;3.10;;;21.80;39.30;;;;;;10266767;28;20413;-70
2023/08/19 03:59:51;;;;;;;3.13;2.93;;;21.70;39.50;;;;;;10264009;28;20255;-70
2023/08/19 04:04:59;;;;;;;3.33;3.03;;;21.70;40.60;;;;;;10262916;28;20232;-70
2023/08/19 04:10:03;;;;;;;2.90;2.70;;;21.70;40.70;;;;;;10265877;28;20239;-71
2023/08/19 04:15:10;;;;;;;4.80;3.07;;;21.70;40.00;;;;;;10260733;28;20236;-70
2023/08/19 04:20:13;;;;;;;3.60;2.57;;;21.70;40.50;;;;;;10278262;28;20600;-70
2023/08/19 04:25:17;;;;;;;5.27;3.30;;;21.70;40.00;;;;;;10268891;28;20282;-70
2023/08/19 04:30:22;;;;;;;3.67;3.27;;;21.70;40.00;;;;;;10269499;28;20932;-70
2023/08/19 04:35:28;;;;;;;3.33;3.03;;;21.70;40.30;;;;;;10268512;28;20238;-70
2023/08/19 04:40:32;;;;;;;3.60;3.20;;;21.70;40.60;;;;;;10266957;28;20596;-70
2023/08/19 04:45:36;;;;;;;3.87;3.10;;;21.70;40.00;;;;;;10272166;28;20231;-70
2023/08/19 04:50:39;;;;;;;3.10;2.90;;;21.70;40.30;;;;;;10269887;28;20784;-70
2023/08/19 04:55:43;;;;;;;3.40;3.10;;;21.70;40.10;;;;;;10264015;28;20309;-70
2023/08/19 05:00:48;;;;;;;3.50;2.87;;;21.70;40.30;;;;;;10268258;28;20246;-70
2023/08/19 05:05:51;;;;;;;3.10;2.80;;;21.70;40.50;;;;;;10268162;28;20236;-70
2023/08/19 05:10:54;;;;;;;2.90;2.70;;;21.70;40.30;;;;;;10269638;28;20236;-70
2023/08/19 05:16:01;;;;;;;3.20;3.00;;;21.80;40.40;;;;;;10268427;28;20658;-70
2023/08/19 05:21:05;;;;;;;3.80;3.50;;;21.70;41.10;;;;;;10263900;28;20708;-70
2023/08/19 05:26:08;;;;;;;4.37;4.00;;;21.70;40.70;;;;;;10265654;28;20318;-70
2023/08/19 05:31:12;;;;;;;3.93;3.63;;;21.80;40.90;;;;;;10274441;28;21062;-70
2023/08/19 05:36:16;;;;;;;3.63;3.43;;;21.80;41.60;;;;;;10268466;28;20240;-70
2023/08/19 05:41:19;;;;;;;3.63;3.33;;;21.90;41.40;;;;;;10266148;28;20747;-71
2023/08/19 05:46:24;;;;;;;3.80;3.60;;;21.90;41.50;;;;;;10271153;28;20701;-71
2023/08/19 05:51:27;;;;;;;4.17;3.87;;;21.90;42.30;;;;;;10271275;28;20338;-71
2023/08/19 05:56:30;;;;;;;4.83;4.53;;;21.90;41.80;;;;;;10270973;28;20250;-71
2023/08/19 06:01:35;;;;;;;5.07;4.67;;;22.00;42.00;;;;;;10263755;28;20334;-71
2023/08/19 06:06:38;;;;;;;5.50;5.10;;;22.00;42.70;;;;;;10263098;28;20816;-71
2023/08/19 06:11:48;;;;;;;5.53;5.13;;;22.10;42.50;;;;;;10264886;28;20231;-71
2023/08/19 06:16:53;;;;;;;5.70;5.13;;;22.10;43.90;;;;;;10262810;28;20323;-71
2023/08/19 06:21:56;;;;;;;5.43;5.03;;;22.20;43.50;;;;;;10270853;28;20306;-71
2023/08/19 06:26:59;;;;;;;5.73;5.23;;;22.30;43.10;;;;;;10266864;28;20236;-71
2023/08/19 06:32:04;;;;;;;5.97;5.50;;;22.40;43.60;;;;;;10268458;28;20263;-71
2023/08/19 06:37:11;;;;;;;6.00;5.50;;;22.50;44.70;;;;;;10263585;28;20242;-71
2023/08/19 06:42:16;;;;;;;6.60;6.07;;;22.70;44.50;;;;;;10267839;28;20239;-71
2023/08/19 06:47:23;;;;;;;6.93;6.23;;;22.70;44.70;;;;;;10269858;28;20240;-71
2023/08/19 06:52:27;;;;;;;5.90;5.50;;;22.90;45.60;;;;;;10265722;28;20712;-71
2023/08/19 06:57:36;;;;;;;6.63;6.17;;;23.00;44.70;;;;;;10272273;28;20227;-71
2023/08/19 07:02:42;;;;;;;6.57;6.07;;;23.20;45.50;;;;;;10266977;28;20242;-71
2023/08/19 07:07:47;;;;;;;6.43;5.93;;;23.30;45.20;;;;;;10269264;28;20243;-71
2023/08/19 07:12:51;;;;;;;6.00;5.50;;;23.50;44.50;;;;;;10268542;28;20802;-71
2023/08/19 07:17:58;;;;;;;6.00;5.60;;;23.60;44.40;;;;;;10258796;28;20232;-71
2023/08/19 07:23:02;;;;;;;6.60;6.10;;;23.80;45.20;;;;;;10265109;28;20259;-71
2023/08/19 07:28:06;;;;;;;6.47;5.87;;;24.00;44.60;;;;;;10267138;28;20246;-71
2023/08/19 07:33:11;;;;;;;6.07;5.57;;;24.20;44.30;;;;;;10264351;28;20738;-71
2023/08/19 07:38:14;;;;;;;5.97;5.37;;;24.30;44.50;;;;;;10261880;28;20236;-71
2023/08/19 07:43:18;;;;;;;5.67;5.17;;;24.50;44.10;;;;;;10263918;28;20767;-71
2023/08/19 07:48:22;;;;;;;6.07;5.57;;;24.70;44.10;;;;;;10265578;28;20314;-71
2023/08/19 07:53:25;;;;;;;5.13;4.73;;;24.90;44.50;;;;;;10275185;28;20257;-71
2023/08/19 07:58:29;;;;;;;5.37;4.97;;;25.00;44.10;;;;;;10265227;28;20314;-72
2023/08/19 08:03:33;;;;;;;5.33;4.93;;;25.30;44.00;;;;;;10276892;28;20246;-71
2023/08/19 08:08:37;;;;;;;5.30;4.90;;;25.60;44.30;;;;;;10273867;28;20282;-71
2023/08/19 08:13:40;;;;;;;5.67;5.17;;;25.80;43.90;;;;;;10275648;28;20231;-71
2023/08/19 08:18:45;;;;;;;5.27;4.87;;;26.10;44.00;;;;;;10272029;28;20228;-71
2023/08/19 08:23:49;;;;;;;4.50;4.20;;;26.40;43.80;;;;;;10263391;28;20236;-71
2023/08/19 08:28:52;;;;;;;4.90;4.50;;;26.70;42.80;;;;;;10270207;28;20236;-71
2023/08/19 08:33:57;;;;;;;4.50;4.10;;;27.00;42.40;;;;;;10277272;28;20322;-71
2023/08/19 08:39:00;;;;;;;4.20;3.90;;;27.30;42.40;;;;;;10280086;28;20232;-71
2023/08/19 08:44:03;;;;;;;4.80;4.40;;;27.60;43.30;;;;;;10271419;28;20768;-71
2023/08/19 08:49:09;;;;;;;4.60;4.30;;;27.90;41.90;;;;;;10269817;28;20242;-71
2023/08/19 08:54:13;;;;;;;4.60;4.20;;;28.30;40.60;;;;;;10273441;28;20267;-71
2023/08/19 08:59:17;;;;;;;4.60;4.30;;;28.60;41.00;;;;;;10271726;28;20545;-71
2023/08/19 09:04:23;;;;;;;4.17;3.73;;;28.80;40.10;;;;;;10263517;28;20340;-71
2023/08/19 09:09:28;;;;;;;4.10;3.80;;;29.10;39.20;;;;;;10268020;28;20731;-71
2023/08/19 09:14:39;;;;;;;4.50;4.20;;;29.40;38.20;;;;;;10272981;28;20241;-71
2023/08/19 09:19:44;;;;;;;3.93;3.60;;;29.70;36.70;;;;;;10275229;28;20271;-71
2023/08/19 09:24:47;;;;;;;4.00;3.80;;;30.00;36.80;;;;;;10266697;28;20231;-71
2023/08/19 09:29:51;;;;;;;4.30;3.70;;;30.20;36.90;;;;;;10269122;28;20232;-71
2023/08/19 09:35:02;;;;;;;3.50;3.30;;;30.50;36.70;;;;;;10271742;28;20298;-71
2023/08/19 09:40:10;;;;;;;3.90;3.60;;;30.70;34.20;;;;;;10272458;28;21031;-71
2023/08/19 09:45:19;;;;;;;3.90;3.03;;;30.90;35.40;;;;;;10272741;28;20763;-71
2023/08/19 09:50:27;;;;;;;3.33;3.10;;;31.10;34.00;;;;;;10275650;28;20284;-71
2023/08/19 09:55:33;;;;;;;3.23;3.03;;;31.30;34.10;;;;;;10266626;28;20642;-71
2023/08/19 10:00:36;;;;;;;3.40;3.20;;;31.50;33.30;;;;;;10268048;28;20322;-71
2023/08/19 10:05:42;;;;;;;3.07;2.87;;;31.70;33.80;;;;;;10267870;28;20228;-71
2023/08/19 10:10:47;;;;;;;3.40;2.90;;;31.80;32.70;;;;;;10267903;28;20242;-71
2023/08/19 10:15:52;;;;;;;3.27;2.97;;;32.00;32.90;;;;;;10272431;28;20262;-71
2023/08/19 10:21:00;;;;;;;3.20;3.00;;;32.20;32.40;;;;;;10269228;28;20237;-71
2023/08/19 10:26:03;;;;;;;3.23;2.87;;;32.30;30.80;;;;;;10270282;28;20239;-71
2023/08/19 10:31:08;;;;;;;3.20;2.90;;;32.50;31.50;;;;;;10270251;28;20263;-71
2023/08/19 10:36:16;;;;;;;3.97;3.57;;;32.50;30.40;;;;;;10271778;28;20229;-71
2023/08/19 10:41:33;;;;;;;3.00;2.80;;;32.70;29.70;;;;;;10261791;28;20716;-71
2023/08/19 10:46:37;;;;;;;3.10;2.90;;;32.70;29.10;;;;;;10265779;28;20240;-78
2023/08/19 10:51:51;;;;;;;3.13;2.93;;;32.90;29.20;;;;;;10272063;28;20245;-79
2023/08/19 10:57:12;;;;;;;3.03;2.80;;;32.90;28.90;;;;;;10267340;28;20237;-80
2023/08/19 11:02:15;;;;;;;2.90;2.70;;;33.00;29.40;;;;;;10268935;28;20230;-78
2023/08/19 11:07:21;;;;;;;3.47;2.90;;;33.10;29.40;;;;;;10278917;28;20231;-80
2023/08/19 11:12:26;;;;;;;3.30;3.10;;;33.20;27.40;;;;;;10284171;28;20242;-78
2023/08/19 11:17:31;;;;;;;2.83;2.63;;;33.30;28.10;;;;;;10270357;28;20332;-78
2023/08/19 11:22:43;;;;;;;2.77;2.57;;;33.40;27.70;;;;;;10275015;28;20295;-78
2023/08/19 11:27:46;;;;;;;3.00;2.80;;;33.50;26.30;;;;;;10262687;28;20265;-78
2023/08/19 11:32:52;;;;;;;2.60;2.40;;;33.50;27.30;;;;;;10267338;28;20599;-78
2023/08/19 11:37:56;;;;;;;2.83;2.63;;;33.60;26.70;;;;;;10274298;28;20239;-80
2023/08/19 11:43:06;;;;;;;3.20;2.90;;;33.70;26.60;;;;;;10269294;28;20241;-79
2023/08/19 11:48:14;;;;;;;3.37;3.07;;;33.80;25.80;;;;;;10266078;28;20702;-80
2023/08/19 11:53:29;;;;;;;3.47;2.90;;;33.80;24.70;;;;;;10262527;28;20271;-78
2023/08/19 11:58:47;;;;;;;3.10;2.87;;;33.90;24.40;;;;;;10263485;28;20885;-78
2023/08/19 12:03:51;;;;;;;3.10;2.80;;;33.90;24.70;;;;;;10271741;28;20789;-82
2023/08/19 12:08:56;;;;;;;5.10;2.70;;;33.90;25.40;;;;;;10272952;28;20229;-79
2023/08/19 12:14:02;;;;;;;3.80;2.87;;;33.90;24.20;;;;;;10273711;28;20740;-78
2023/08/19 12:19:05;;;;;;;2.90;2.70;;;33.90;24.10;;;;;;10265008;28;20241;-78
2023/08/19 12:24:10;;;;;;;3.63;2.93;;;33.90;24.50;;;;;;10260964;28;20261;-79
2023/08/19 12:29:13;;;;;;;5.13;3.30;;;33.90;24.40;;;;;;10271519;28;20329;-79
2023/08/19 12:34:16;;;;;;;4.50;2.90;;;33.90;24.60;;;;;;10266617;28;20754;-81
2023/08/19 12:39:21;;;;;;;5.40;3.10;;;34.00;24.50;;;;;;10278408;28;20303;-81
2023/08/19 12:44:24;;;;;;;2.90;2.67;;;34.00;23.50;;;;;;10286086;28;20316;-81
2023/08/19 12:49:27;;;;;;;4.97;3.00;;;34.10;23.70;;;;;;10274650;28;20656;-81
2023/08/19 12:54:32;;;;;;;3.33;3.00;;;34.10;23.30;;;;;;10273379;28;20314;-81
2023/08/19 12:59:35;;;;;;;3.27;2.90;;;34.10;23.30;;;;;;10278618;28;20257;-81
2023/08/19 13:04:38;;;;;;;3.37;2.93;;;34.10;24.20;;;;;;10276924;28;20917;-78
2023/08/19 13:09:43;;;;;;;3.33;3.03;;;34.20;23.70;;;;;;10273822;28;20239;-80
2023/08/19 13:14:46;;;;;;;3.70;3.33;;;34.20;23.30;;;;;;10274743;28;20317;-80
2023/08/19 13:19:50;;;;;;;3.20;2.90;;;34.20;23.30;;;;;;10279505;28;20704;-80
2023/08/19 13:24:54;;;;;;;6.70;3.00;;;34.20;23.30;;;;;;10274744;28;20323;-76
2023/08/19 13:29:57;;;;;;;3.23;2.60;;;34.20;22.50;;;;;;10271443;28;20325;-75
2023/08/19 13:35:01;;;;;;;3.13;2.80;;;34.20;22.50;;;;;;10266903;28;20230;-74
2023/08/19 13:40:07;;;;;;;4.83;3.10;;;34.20;22.90;;;;;;10274307;28;21008;-74
2023/08/19 13:45:10;;;;;;;3.40;2.97;;;34.20;21.90;;;;;;10264745;28;20247;-74
2023/08/19 13:50:14;;;;;;;5.37;3.20;;;34.30;22.70;;;;;;10269431;28;20230;-75
2023/08/19 13:55:18;;;;;;;3.77;3.00;;;34.40;22.50;;;;;;10273654;28;20243;-75
2023/08/19 14:00:22;;;;;;;2.97;2.73;;;34.40;22.30;;;;;;10271801;28;20244;-74
2023/08/19 14:05:25;;;;;;;3.93;3.07;;;34.40;22.40;;;;;;10257792;28;20730;-73
2023/08/19 14:10:30;;;;;;;4.93;2.87;;;34.40;22.00;;;;;;10260733;28;20258;-73
2023/08/19 14:15:33;;;;;;;5.77;2.90;;;34.50;21.50;;;;;;10263037;28;20327;-74
2023/08/19 14:20:36;;;;;;;4.97;2.97;;;34.40;21.40;;;;;;10271384;28;20321;-74
2023/08/19 14:25:41;;;;;;;4.40;3.10;;;34.40;21.50;;;;;;10274970;28;20318;-75
2023/08/19 14:30:44;;;;;;;3.87;2.93;;;34.50;21.40;;;;;;10275571;28;20262;-73
2023/08/19 14:35:48;;;;;;;3.23;2.73;;;34.50;21.30;;;;;;10270778;28;20235;-74
2023/08/19 14:40:52;;;;;;;4.00;3.20;;;34.50;21.20;;;;;;10270875;28;20240;-75
2023/08/19 14:45:56;;;;;;;3.53;2.67;;;34.60;20.50;;;;;;10272176;28;20251;-74
2023/08/19 14:51:00;;;;;;;4.50;2.70;;;34.60;20.90;;;;;;10265487;28;20231;-76
2023/08/19 14:56:05;;;;;;;2.90;2.70;;;34.70;20.50;;;;;;10269793;28;20666;-75
2023/08/19 15:01:08;;;;;;;2.93;2.60;;;34.70;20.00;;;;;;10259384;28;20238;-73
2023/08/19 15:06:11;;;;;;;3.60;3.03;;;34.70;20.40;;;;;;10276017;28;20274;-74
2023/08/19 15:11:16;;;;;;;4.60;3.07;;;34.70;19.90;;;;;;10265798;28;20330;-75
2023/08/19 15:16:19;;;;;;;3.03;2.37;;;34.70;19.90;;;;;;10272108;28;20238;-71
2023/08/19 15:21:22;;;;;;;2.87;2.57;;;34.70;19.90;;;;;;10244026;28;20306;-71
2023/08/19 15:26:27;;;;;;;4.70;2.83;;;34.70;20.00;;;;;;10251147;28;20246;-71
2023/08/19 15:31:32;;;;;;;4.27;2.67;;;34.70;19.40;;;;;;10247852;28;20245;-71
2023/08/19 15:36:36;;;;;;;3.13;2.50;;;34.80;19.60;;;;;;10249331;28;20246;-72
2023/08/19 15:41:40;;;;;;;3.13;2.70;;;34.80;19.50;;;;;;10263541;28;20719;-72
2023/08/19 15:46:43;;;;;;;4.17;2.80;;;34.90;19.10;;;;;;10253257;28;20242;-70
2023/08/19 15:51:47;;;;;;;3.67;2.70;;;34.90;19.30;;;;;;10241474;28;20242;-70
2023/08/19 15:56:51;;;;;;;3.27;2.80;;;34.90;19.10;;;;;;10258445;28;20231;-71
2023/08/19 16:01:54;;;;;;;3.10;2.90;;;34.90;18.40;;;;;;10250306;28;20252;-70
2023/08/19 16:06:58;;;;;;;3.53;2.90;;;34.90;18.90;;;;;;10250746;28;20237;-71
2023/08/19 16:12:03;;;;;;;3.40;2.83;;;34.90;18.40;;;;;;10244059;28;20603;-71
2023/08/19 16:17:07;;;;;;;3.63;2.97;;;34.90;18.40;;;;;;10259402;28;20234;-71
2023/08/19 16:22:10;;;;;;;3.87;2.83;;;34.80;18.80;;;;;;10255729;28;20242;-70
2023/08/19 16:27:18;;;;;;;2.73;2.40;;;34.90;18.50;;;;;;10260673;28;20244;-69
2023/08/19 16:32:21;;;;;;;3.60;3.30;;;34.90;18.40;;;;;;10255632;28;20235;-70
2023/08/19 16:37:24;;;;;;;3.83;2.83;;;34.90;19.40;;;;;;10252578;28;20312;-69
2023/08/19 16:42:29;;;;;;;3.17;2.87;;;35.00;20.60;;;;;;10256351;28;20264;-70
2023/08/19 16:47:32;;;;;;;4.27;3.00;;;35.10;21.50;;;;;;10261880;28;20240;-69
2023/08/19 16:52:36;;;;;;;7.03;6.33;;;35.20;21.00;;;;;;10263146;28;20243;-70
2023/08/19 16:57:41;;;;;;;7.07;5.67;;;35.20;20.70;;;;;;10258749;28;20338;-70
2023/08/19 17:02:47;;;;;;;5.30;3.83;;;35.20;20.40;;;;;;10257478;28;20255;-69
2023/08/19 17:07:50;;;;;;;3.63;3.10;;;35.10;20.50;;;;;;10256803;28;20256;-69
2023/08/19 17:12:55;;;;;;;3.53;3.23;;;35.10;20.60;;;;;;10262901;28;20241;-69
2023/08/19 17:17:58;;;;;;;4.37;2.90;;;35.10;20.60;;;;;;10258865;28;20237;-70
2023/08/19 17:23:02;;;;;;;3.23;2.80;;;35.00;21.60;;;;;;10263798;28;20259;-70
2023/08/19 17:28:07;;;;;;;3.30;2.90;;;35.00;22.50;;;;;;10261797;28;20864;-69
2023/08/19 17:33:11;;;;;;;3.37;2.80;;;34.90;23.60;;;;;;10258555;28;20754;-69
2023/08/19 17:38:14;;;;;;;3.37;2.80;;;34.70;22.80;;;;;;10260495;28;20266;-69
2023/08/19 17:43:19;;;;;;;3.20;2.90;;;34.60;23.00;;;;;;10254295;28;20245;-69
2023/08/19 17:48:23;;;;;;;3.43;2.80;;;34.40;24.00;;;;;;10262137;28;20357;-69
2023/08/19 17:53:26;;;;;;;4.40;3.00;;;34.20;23.30;;;;;;10256849;28;20901;-70
2023/08/19 17:58:31;;;;;;;3.63;2.53;;;34.10;23.20;;;;;;10259044;28;20240;-69
2023/08/19 18:03:34;;;;;;;4.07;3.47;;;33.90;24.10;;;;;;10256971;28;20884;-70
2023/08/19 18:08:37;;;;;;;3.87;3.03;;;33.80;24.10;;;;;;10259351;28;20247;-69
2023/08/19 18:13:42;;;;;;;3.13;2.83;;;33.50;23.90;;;;;;10259409;28;20244;-69
2023/08/19 18:18:45;;;;;;;4.17;3.30;;;33.30;24.10;;;;;;10253919;28;20232;-69
2023/08/19 18:23:49;;;;;;;4.50;3.20;;;33.20;23.80;;;;;;10258694;28;20229;-70
2023/08/19 18:28:53;;;;;;;3.80;2.80;;;33.00;24.80;;;;;;10259692;28;20243;-70
2023/08/19 18:33:56;;;;;;;4.30;2.97;;;32.90;25.00;;;;;;10258426;28;20770;-70
2023/08/19 18:39:00;;;;;;;3.90;3.10;;;32.70;25.00;;;;;;10264049;28;20897;-70
2023/08/19 18:44:05;;;;;;;7.80;3.43;;;32.50;25.10;;;;;;10262223;28;20331;-69
2023/08/19 18:49:08;;;;;;;4.37;3.50;;;32.30;28.10;;;;;;10260254;28;21081;-69
2023/08/19 18:54:11;;;;;;;3.33;3.10;;;31.90;26.80;;;;;;10255632;28;20294;-69
2023/08/19 18:59:16;;;;;;;4.47;3.37;;;31.40;27.40;;;;;;10254153;28;20286;-69
2023/08/19 19:04:19;;;;;;;3.30;3.00;;;31.00;27.80;;;;;;10256042;28;20319;-69
2023/08/19 19:09:23;;;;;;;4.03;3.33;;;30.70;27.40;;;;;;10252772;28;20232;-69
2023/08/19 19:14:27;;;;;;;3.90;3.27;;;30.40;27.80;;;;;;10254866;28;20239;-69
2023/08/19 19:19:30;;;;;;;4.87;3.20;;;30.30;28.50;;;;;;10254894;28;20239;-70
2023/08/19 19:24:34;;;;;;;3.87;3.50;;;30.30;29.00;;;;;;10253595;28;20236;-69
2023/08/19 19:29:38;;;;;;;3.90;3.60;;;30.30;28.20;;;;;;10251862;28;20238;-70
2023/08/19 19:34:41;;;;;;;5.43;4.93;;;30.20;28.40;;;;;;10260756;28;20236;-69
2023/08/19 19:39:44;;;;;;;5.60;5.10;;;29.90;28.30;;;;;;10260271;28;20319;-69
2023/08/19 19:44:50;;;;;;;4.63;4.03;;;29.60;28.90;;;;;;10252889;28;20246;-69
2023/08/19 19:49:53;;;;;;;4.57;4.17;;;29.30;29.50;;;;;;10259561;28;20318;-69
2023/08/19 19:54:56;;;;;;;4.90;4.40;;;29.20;29.60;;;;;;10265526;28;20884;-69
2023/08/19 20:00:01;;;;;;;5.27;4.37;;;29.20;29.70;;;;;;10264243;28;20242;-69
2023/08/19 20:05:05;;;;;;;4.80;4.40;;;29.20;30.40;;;;;;10262053;28;20342;-70
2023/08/19 20:10:09;;;;;;;5.73;4.00;;;29.20;30.00;;;;;;10258094;28;20600;-70
2023/08/19 20:15:31;;;;;;;4.73;4.00;;;29.30;30.00;;;;;;10259082;28;20248;-70
2023/08/19 20:20:34;;;;;;;5.10;4.63;;;29.20;30.50;;;;;;10251831;28;21090;-69
2023/08/19 20:25:37;;;;;;;5.70;4.60;;;29.10;30.00;;;;;;10262481;28;20727;-70
2023/08/19 20:30:42;;;;;;;4.10;3.80;;;29.00;30.20;;;;;;10263104;28;20613;-69
2023/08/19 20:35:45;;;;;;;5.60;5.10;;;28.80;30.70;;;;;;10256733;28;20247;-69
2023/08/19 20:40:48;;;;;;;8.30;5.03;;;28.70;30.60;;;;;;10254963;28;20742;-69
2023/08/19 20:45:54;;;;;;;5.60;4.93;;;28.50;30.50;;;;;;10253871;28;20239;-68
2023/08/19 20:50:57;;;;;;;5.27;4.50;;;28.30;31.70;;;;;;10258023;28;20330;-68
2023/08/19 20:56:00;;;;;;;4.57;4.17;;;28.10;32.10;;;;;;10259451;28;20286;-68
2023/08/19 21:01:05;;;;;;;4.80;3.80;;;27.90;31.60;;;;;;10257139;28;20243;-68
2023/08/19 21:06:09;;;;;;;5.37;4.87;;;27.90;32.40;;;;;;10251970;28;20309;-69
2023/08/19 21:11:12;;;;;;;7.63;6.70;;;27.90;32.00;;;;;;10252052;28;20653;-69
2023/08/19 21:16:16;;;;;;;10.07;7.50;;;27.90;32.10;;;;;;10254286;28;20239;-69
2023/08/19 21:21:20;;;;;;;7.60;6.67;;;27.90;32.70;;;;;;10257064;28;20237;-69
2023/08/19 21:26:23;;;;;;;6.00;5.27;;;27.80;32.40;;;;;;10255217;28;20235;-69
2023/08/19 21:31:27;;;;;;;5.10;4.60;;;27.70;32.60;;;;;;10250755;28;20266;-69
2023/08/19 21:36:31;;;;;;;4.50;4.10;;;27.70;33.20;;;;;;10251750;28;20751;-69
2023/08/19 21:41:34;;;;;;;4.50;4.10;;;27.70;32.80;;;;;;10255622;28;20762;-69
2023/08/19 21:46:38;;;;;;;3.90;3.60;;;27.50;32.80;;;;;;10251088;28;20977;-70
2023/08/19 21:51:42;;;;;;;4.57;4.10;;;27.30;33.60;;;;;;10250712;28;20243;-68
2023/08/19 21:56:45;;;;;;;4.60;4.10;;;27.10;33.50;;;;;;10256851;28;20231;-69
2023/08/19 22:01:50;;;;;;;5.40;4.17;;;27.00;33.80;;;;;;10251602;28;20731;-68
2023/08/19 22:06:53;;;;;;;5.43;4.20;;;26.90;34.60;;;;;;10252859;28;20232;-68
2023/08/19 22:11:56;;;;;;;5.17;4.60;;;26.80;34.10;;;;;;10250393;28;20323;-68
2023/08/19 22:17:01;;;;;;;5.73;4.73;;;26.60;34.60;;;;;;10252654;28;20743;-68
2023/08/19 22:22:05;;;;;;;4.90;4.37;;;26.50;35.60;;;;;;10255280;28;20275;-69
2023/08/19 22:27:08;;;;;;;5.83;4.40;;;26.30;35.10;;;;;;10250452;28;20240;-68
2023/08/19 22:32:13;;;;;;;4.60;3.97;;;26.30;35.60;;;;;;10253545;28;20243;-68
2023/08/19 22:37:18;;;;;;;6.33;4.13;;;26.20;36.40;;;;;;10251999;28;20232;-69
2023/08/19 22:42:21;;;;;;;4.33;3.70;;;26.20;35.80;;;;;;10249465;28;20342;-68
2023/08/19 22:47:26;;;;;;;6.00;4.00;;;26.20;35.50;;;;;;10248975;28;20471;-68
2023/08/19 22:52:29;;;;;;;4.20;3.90;;;26.20;36.40;;;;;;10253009;28;20235;-68
2023/08/19 22:57:32;;;;;;;4.27;3.77;;;26.20;35.90;;;;;;10254306;28;20913;-68
2023/08/19 23:02:37;;;;;;;3.97;3.57;;;26.30;36.00;;;;;;10260085;28;20243;-68
2023/08/19 23:07:40;;;;;;;4.20;3.80;;;26.30;36.50;;;;;;10256346;28;20236;-68
2023/08/19 23:12:44;;;;;;;4.40;4.00;;;26.30;35.80;;;;;;10255863;28;20616;-68
2023/08/19 23:17:49;;;;;;;3.93;3.63;;;26.40;35.90;;;;;;10254674;28;20238;-68
2023/08/19 23:22:55;;;;;;;4.43;4.03;;;26.40;36.50;;;;;;10254401;28;20243;-68
2023/08/19 23:27:58;;;;;;;3.83;3.53;;;26.50;35.80;;;;;;10253196;28;20322;-68
2023/08/19 23:33:03;;;;;;;4.13;3.83;;;26.50;35.70;;;;;;10263282;28;20244;-68
2023/08/19 23:38:06;;;;;;;5.83;3.87;;;26.40;36.30;;;;;;10254548;28;20239;-68
2023/08/19 23:43:10;;;;;;;4.07;3.70;;;26.40;35.90;;;;;;10253299;28;20239;-68
2023/08/19 23:48:17;;;;;;;4.30;3.97;;;26.40;35.90;;;;;;10255936;28;20238;-68
2023/08/19 23:53:23;;;;;;;5.57;4.20;;;26.40;36.60;;;;;;10248845;28;20235;-68
2023/08/19 23:58:27;;;;;;;5.70;4.33;;;26.40;36.60;;;;;;10250506;28;20251;-68
